createdAt,value
2023-05-17T00:00:33.681Z,99.90
2023-05-17T00:03:06.219Z,99.90
2023-05-17T00:05:38.635Z,99.90
2023-05-17T00:08:11.277Z,99.90
2023-05-17T00:10:44.118Z,99.90
2023-05-17T00:13:16.054Z,99.90
2023-05-17T00:15:48.886Z,99.90
2023-05-17T00:18:20.915Z,99.90
2023-05-17T00:20:53.754Z,99.90
2023-05-17T00:23:26.114Z,99.90
2023-05-17T00:25:58.031Z,99.90
2023-05-17T00:28:31.075Z,99.90
2023-05-17T00:31:03.562Z,99.90
2023-05-17T00:33:36.485Z,99.90
2023-05-17T00:36:09.017Z,99.90
2023-05-17T00:38:41.510Z,99.90
2023-05-17T00:41:13.880Z,99.90
2023-05-17T00:46:18.696Z,99.90
2023-05-17T00:48:51.625Z,99.90
2023-05-17T00:51:24.904Z,99.90
2023-05-17T00:53:57.389Z,99.90
2023-05-17T00:56:30.455Z,99.90
2023-05-17T00:59:05.557Z,99.90
2023-05-17T01:01:42.023Z,99.90
2023-05-17T01:04:15.658Z,99.90
2023-05-17T01:06:48.328Z,99.90
2023-05-17T01:09:20.341Z,99.90
2023-05-17T01:12:59.741Z,99.90
2023-05-17T01:15:36.087Z,99.90
2023-05-17T01:18:21.875Z,99.90
2023-05-17T01:21:00.026Z,99.90
2023-05-17T01:23:47.439Z,99.90
2023-05-17T01:26:39.870Z,99.90
2023-05-17T01:29:14.647Z,99.90
2023-05-17T01:31:48.897Z,99.90
2023-05-17T01:34:30.144Z,99.90
2023-05-17T01:37:02.078Z,99.90
2023-05-17T01:39:36.685Z,99.90
2023-05-17T01:42:29.178Z,99.90
2023-05-17T01:45:32.579Z,99.90
2023-05-17T01:48:52.733Z,99.90
2023-05-17T01:51:34.167Z,99.90
2023-05-17T01:54:12.549Z,99.90
2023-05-17T01:56:49.176Z,99.90
2023-05-17T01:59:25.467Z,99.90
2023-05-17T02:02:07.372Z,99.90
2023-05-17T02:04:41.487Z,99.90
2023-05-17T02:07:13.496Z,99.90
2023-05-17T02:09:46.476Z,99.90
2023-05-17T02:12:18.545Z,99.90
2023-05-17T02:14:51.130Z,99.90
2023-05-17T02:17:23.148Z,99.90
2023-05-17T02:19:55.586Z,99.90
2023-05-17T02:25:03.248Z,99.90
2023-05-17T02:30:11.490Z,99.90
2023-05-17T02:32:43.730Z,99.90
2023-05-17T02:35:16.314Z,99.90
2023-05-17T02:37:48.452Z,99.90
2023-05-17T02:40:20.946Z,99.90
2023-05-17T02:42:52.900Z,99.90
2023-05-17T02:50:31.844Z,99.90
2023-05-17T02:53:04.634Z,99.90
2023-05-17T02:55:37.122Z,99.90
2023-05-17T02:58:09.606Z,99.90
2023-05-17T03:00:46.485Z,99.90
2023-05-17T03:05:53.403Z,99.90
2023-05-17T03:11:00.995Z,99.90
2023-05-17T03:13:33.065Z,99.90
2023-05-17T03:16:06.312Z,99.90
2023-05-17T03:18:39.305Z,99.90
2023-05-17T03:21:12.539Z,99.90
2023-05-17T03:36:35.147Z,99.90
2023-05-17T03:39:07.893Z,99.90
2023-05-17T03:41:42.421Z,99.90
2023-05-17T03:44:15.562Z,99.90
2023-05-17T03:51:57.328Z,99.90
2023-05-17T03:54:29.545Z,99.90
2023-05-17T03:57:02.004Z,99.90
2023-05-17T04:02:09.691Z,99.90
2023-05-17T04:04:49.550Z,99.90
2023-05-17T04:10:02.769Z,99.90
2023-05-17T04:12:35.612Z,99.90
2023-05-17T04:15:08.276Z,99.90
2023-05-17T04:17:43.242Z,99.90
2023-05-17T04:20:15.407Z,99.90
2023-05-17T04:22:48.259Z,99.90
2023-05-17T04:25:21.081Z,99.90
2023-05-17T04:27:53.645Z,99.90
2023-05-17T04:30:25.892Z,99.90
2023-05-17T04:32:59.154Z,99.90
2023-05-17T04:35:31.194Z,99.90
2023-05-17T04:38:04.231Z,99.90
2023-05-17T04:40:37.055Z,99.90
2023-05-17T04:45:42.955Z,99.90
2023-05-17T04:50:49.214Z,99.90
2023-05-17T04:55:55.320Z,99.90
2023-05-17T05:01:03.661Z,99.90
2023-05-17T05:08:45.437Z,99.90
2023-05-17T05:11:18.419Z,99.90
2023-05-17T05:16:24.969Z,99.90
2023-05-17T05:21:31.330Z,99.90
2023-05-17T05:29:12.360Z,99.90
2023-05-17T05:31:44.626Z,99.90
2023-05-17T05:52:08.894Z,99.90
2023-05-17T06:02:21.272Z,99.90
2023-05-17T06:07:28.662Z,99.90
2023-05-17T06:10:01.156Z,99.90
2023-05-17T06:15:09.860Z,99.90
2023-05-17T06:17:42.079Z,99.90
2023-05-17T06:25:11.403Z,99.90
2023-05-17T06:30:16.228Z,99.90
2023-05-17T06:32:48.695Z,99.90
2023-05-17T06:35:20.697Z,99.90
2023-05-17T06:37:53.181Z,99.90
2023-05-17T06:40:25.107Z,99.90
2023-05-17T06:48:02.833Z,99.90
2023-05-17T06:50:34.857Z,99.90
2023-05-17T06:53:07.736Z,99.90
2023-05-17T06:55:40.309Z,99.90
2023-05-17T06:58:12.730Z,99.90
2023-05-17T07:00:44.787Z,99.90
2023-05-17T07:03:17.769Z,99.70
2023-05-17T07:08:23.009Z,99.90
2023-05-17T07:10:55.044Z,99.90
2023-05-17T07:18:33.288Z,94.50
2023-05-17T07:21:05.627Z,94.60
2023-05-17T07:23:38.155Z,95.50
2023-05-17T07:28:42.850Z,97.80
2023-05-17T07:31:14.831Z,98.60
2023-05-17T07:36:19.774Z,99.00
2023-05-17T07:44:01.016Z,99.60
2023-05-17T07:49:06.098Z,99.40
2023-05-17T07:54:23.786Z,99.40
2023-05-17T07:59:28.810Z,99.90
2023-05-17T08:09:44.451Z,99.90
2023-05-17T08:12:16.435Z,99.90
2023-05-17T08:17:23.836Z,99.90
2023-05-17T08:30:31.770Z,99.90
2023-05-17T08:33:03.929Z,99.90
2023-05-17T08:35:39.322Z,99.90
2023-05-17T08:38:11.440Z,99.90
2023-05-17T08:40:44.138Z,99.90
2023-05-17T08:43:16.702Z,99.90
2023-05-17T08:45:50.787Z,99.90
2023-05-17T08:51:03.847Z,99.90
2023-05-17T08:56:11.561Z,99.90
2023-05-17T08:58:56.414Z,99.90
2023-05-17T09:04:09.774Z,99.00
2023-05-17T09:06:44.885Z,97.80
2023-05-17T09:09:18.753Z,96.70
2023-05-17T09:11:51.691Z,97.10
2023-05-17T09:14:23.694Z,96.80
2023-05-17T09:16:59.314Z,96.60
2023-05-17T09:19:31.717Z,97.20
2023-05-17T09:22:07.507Z,97.30
2023-05-17T09:24:41.506Z,98.70
2023-05-17T09:27:18.904Z,99.30
2023-05-17T09:29:50.711Z,99.40
2023-05-17T09:32:25.355Z,98.30
2023-05-17T09:34:59.859Z,99.00
2023-05-17T09:40:09.479Z,98.70
2023-05-17T09:45:26.642Z,99.30
2023-05-17T09:48:16.361Z,99.40
2023-05-17T09:50:52.356Z,99.20
2023-05-17T09:53:29.347Z,98.00
2023-05-17T09:56:03.070Z,96.70
2023-05-17T09:58:38.311Z,96.40
2023-05-17T10:01:11.470Z,96.00
2023-05-17T10:03:44.282Z,96.80
2023-05-17T10:06:38.228Z,97.10
2023-05-17T10:09:16.330Z,98.30
2023-05-17T10:11:48.639Z,97.80
2023-05-17T10:14:34.223Z,97.20
2023-05-17T10:17:09.078Z,96.60
2023-05-17T10:22:38.723Z,97.20
2023-05-17T10:27:45.088Z,96.60
2023-05-17T10:30:20.951Z,97.30
2023-05-17T10:32:57.139Z,97.40
2023-05-17T10:35:32.938Z,97.50
2023-05-17T10:40:41.076Z,97.40
2023-05-17T10:43:14.716Z,96.80
2023-05-17T10:45:49.441Z,96.90
2023-05-17T10:48:21.603Z,97.20
2023-05-17T10:56:06.203Z,97.30
2023-05-17T10:58:39.458Z,96.80
2023-05-17T11:01:53.253Z,97.30
2023-05-17T11:04:36.695Z,97.40
2023-05-17T11:07:27.585Z,97.30
2023-05-17T11:10:11.071Z,96.90
2023-05-17T11:12:54.497Z,96.40
2023-05-17T11:15:27.738Z,95.50
2023-05-17T11:20:36.172Z,96.60
2023-05-17T11:23:18.787Z,96.30
2023-05-17T11:25:54.224Z,96.60
2023-05-17T11:28:47.729Z,96.60
2023-05-17T11:31:34.661Z,96.50
2023-05-17T11:34:07.170Z,96.20
2023-05-17T11:36:55.570Z,95.80
2023-05-17T11:39:28.648Z,96.60
2023-05-17T11:42:00.613Z,96.30
2023-05-17T11:44:35.319Z,96.30
2023-05-17T11:47:27.129Z,96.70
2023-05-17T11:50:06.996Z,96.60
2023-05-17T11:52:41.360Z,96.30
2023-05-17T11:55:16.425Z,97.40
2023-05-17T11:57:49.242Z,99.00
2023-05-17T12:00:28.835Z,99.90
2023-05-17T12:03:26.508Z,99.90
2023-05-17T12:06:15.931Z,99.90
2023-05-17T12:16:30.506Z,98.80
2023-05-17T12:22:14.582Z,99.50
2023-05-17T12:25:26.154Z,98.90
2023-05-17T12:28:22.711Z,99.00
2023-05-17T12:30:58.873Z,98.60
2023-05-17T12:33:35.343Z,97.40
2023-05-17T12:36:10.718Z,97.20
2023-05-17T12:38:45.752Z,97.40
2023-05-17T12:49:27.839Z,95.20
2023-05-17T12:52:06.172Z,95.80
2023-05-17T12:54:40.333Z,96.30
2023-05-17T12:57:16.220Z,96.50
2023-05-17T12:59:49.898Z,95.80
2023-05-17T13:02:24.248Z,96.00
2023-05-17T13:04:56.593Z,95.90
2023-05-17T13:07:50.881Z,96.30
2023-05-17T13:10:27.260Z,96.50
2023-05-17T13:13:00.624Z,96.80
2023-05-17T13:15:37.818Z,96.40
2023-05-17T13:18:18.262Z,95.10
2023-05-17T13:20:52.055Z,95.30
2023-05-17T13:23:24.656Z,95.50
2023-05-17T13:25:56.815Z,95.80
2023-05-17T13:31:01.816Z,97.20
2023-05-17T13:33:34.987Z,97.00
2023-05-17T13:43:48.659Z,97.10
2023-05-17T13:46:21.029Z,97.00
2023-05-17T13:48:53.418Z,97.70
2023-05-17T13:51:28.439Z,98.40
2023-05-17T13:54:01.795Z,98.00
2023-05-17T13:56:36.054Z,97.80
2023-05-17T13:59:07.974Z,98.20
2023-05-17T14:14:31.834Z,99.90
2023-05-17T14:27:16.327Z,97.90
2023-05-17T14:32:22.324Z,99.90
2023-05-17T14:34:54.743Z,99.90
2023-05-17T14:40:22.554Z,99.90
2023-05-17T14:42:56.399Z,99.90
2023-05-17T14:50:35.504Z,99.90
2023-05-17T15:06:03.558Z,99.90
2023-05-17T15:13:47.238Z,97.30
2023-05-17T15:16:19.853Z,97.60
2023-05-17T15:21:28.103Z,98.80
2023-05-17T15:29:07.445Z,99.90
2023-05-17T15:34:12.884Z,99.90
2023-05-17T15:39:19.035Z,97.30
2023-05-17T15:52:04.597Z,98.00
2023-05-17T15:54:37.401Z,98.30
2023-05-17T15:57:09.588Z,98.10
2023-05-17T15:59:48.316Z,98.50
2023-05-17T16:04:53.688Z,98.00
2023-05-17T16:12:34.088Z,97.20
2023-05-17T16:15:08.260Z,97.10
2023-05-17T16:22:51.076Z,97.30
2023-05-17T16:25:25.550Z,97.80
2023-05-17T16:30:33.094Z,97.20
2023-05-17T16:33:08.254Z,97.50
2023-05-17T16:38:14.384Z,97.20
2023-05-17T16:45:53.036Z,97.30
2023-05-17T16:50:59.477Z,97.30
2023-05-17T16:53:54.096Z,97.60
2023-05-17T16:56:27.150Z,97.30
2023-05-17T16:59:03.353Z,97.40
2023-05-17T17:06:40.847Z,97.60
2023-05-17T17:11:46.846Z,97.80
2023-05-17T17:14:19.951Z,97.90
2023-05-17T17:16:51.928Z,98.20
2023-05-17T17:19:27.829Z,98.70
2023-05-17T17:24:34.010Z,98.70
2023-05-17T17:29:39.069Z,99.10
2023-05-17T17:32:11.982Z,99.40
2023-05-17T17:39:50.752Z,99.70
2023-05-17T17:42:23.229Z,99.70
2023-05-17T17:44:55.663Z,99.80
2023-05-17T17:47:28.523Z,99.90
2023-05-17T17:55:07.715Z,99.90
2023-05-17T17:57:42.368Z,99.90
2023-05-17T18:02:50.979Z,99.90
2023-05-17T18:10:31.949Z,99.90
2023-05-17T18:15:37.201Z,99.90
2023-05-17T18:18:10.016Z,99.90
2023-05-17T18:25:50.501Z,99.90
2023-05-17T18:28:33.844Z,99.90
2023-05-17T18:31:14.943Z,99.90
2023-05-17T18:33:47.328Z,99.90
2023-05-17T18:36:19.255Z,99.90
2023-05-17T18:41:26.090Z,99.90
2023-05-17T18:46:34.106Z,99.90
2023-05-17T18:49:07.194Z,99.90
2023-05-17T18:51:39.278Z,99.90
2023-05-17T19:04:23.401Z,99.90
2023-05-17T19:12:05.675Z,99.90
2023-05-17T19:14:39.039Z,99.90
2023-05-17T19:17:11.051Z,99.90
2023-05-17T19:19:44.404Z,99.90
2023-05-17T19:27:23.676Z,99.90
2023-05-17T19:32:30.637Z,99.90
2023-05-17T19:35:03.216Z,99.90
2023-05-17T19:40:09.007Z,99.90
2023-05-17T19:42:48.891Z,99.90
2023-05-17T19:47:54.809Z,99.90
2023-05-17T19:53:01.294Z,99.90
2023-05-17T19:58:07.144Z,99.90
2023-05-17T20:00:40.032Z,99.90
2023-05-17T20:05:45.413Z,99.90
2023-05-17T20:08:17.553Z,99.90
2023-05-17T20:10:50.674Z,99.90
2023-05-17T20:13:26.112Z,99.90
2023-05-17T20:15:58.884Z,99.90
2023-05-17T20:18:32.083Z,99.90
2023-05-17T20:21:04.530Z,99.90
2023-05-17T20:23:36.884Z,99.90
2023-05-17T20:31:21.874Z,99.90
2023-05-17T20:36:30.407Z,99.90
2023-05-17T20:39:02.781Z,99.90
2023-05-17T20:44:07.423Z,99.90
2023-05-17T20:46:40.332Z,99.90
2023-05-17T20:51:46.565Z,99.90
2023-05-17T20:54:18.884Z,99.90
2023-05-17T20:56:50.990Z,99.90
2023-05-17T21:01:56.517Z,99.90
2023-05-17T21:04:29.364Z,99.90
2023-05-17T21:09:35.179Z,99.90
2023-05-17T21:14:40.445Z,99.90
2023-05-17T21:22:19.471Z,99.90
2023-05-17T21:27:24.970Z,99.90
2023-05-17T21:37:44.879Z,99.90
2023-05-17T21:42:52.837Z,99.90
2023-05-17T21:45:25.465Z,99.90
2023-05-17T21:47:58.293Z,99.90
2023-05-17T21:53:04.018Z,99.90
2023-05-17T21:55:51.264Z,99.90
2023-05-17T21:58:28.270Z,99.90
2023-05-17T22:03:34.896Z,99.90
2023-05-17T22:06:08.122Z,99.90
2023-05-17T22:08:42.283Z,99.90
2023-05-17T22:11:15.379Z,99.90
2023-05-17T22:13:47.604Z,99.90
2023-05-17T22:16:24.228Z,99.90
2023-05-17T22:21:33.270Z,99.90
2023-05-17T22:24:05.680Z,99.90
2023-05-17T22:31:47.707Z,99.90
2023-05-17T22:34:19.633Z,99.90
2023-05-17T22:36:52.350Z,99.90
2023-05-17T22:39:24.262Z,99.90
2023-05-17T22:41:56.964Z,99.90
2023-05-17T22:44:28.914Z,99.90
2023-05-17T22:47:02.457Z,99.90
2023-05-17T22:49:35.702Z,99.90
2023-05-17T22:52:08.981Z,99.90
2023-05-17T22:54:41.046Z,99.90
2023-05-17T22:57:13.768Z,99.90
2023-05-17T22:59:45.661Z,99.90
2023-05-17T23:04:50.717Z,99.90
2023-05-17T23:07:23.729Z,99.90
2023-05-17T23:09:56.032Z,99.90
2023-05-17T23:12:28.203Z,99.90
2023-05-17T23:15:01.090Z,99.90
2023-05-17T23:20:09.996Z,99.90
2023-05-17T23:22:43.591Z,99.90
2023-05-17T23:35:28.528Z,99.90
2023-05-17T23:38:00.721Z,99.90
2023-05-17T23:40:34.766Z,99.90
2023-05-17T23:43:08.639Z,99.90
2023-05-17T23:45:41.429Z,99.90
2023-05-17T23:48:16.513Z,99.90
2023-05-17T23:53:23.421Z,99.90
2023-05-17T23:58:28.770Z,99.90
